Olds, Canada
Current Conditions -  °F | °C
As of 5:00 AM on Sunday 21 Dec 2014 (Local Time) from CYQF Reporting Station
Broken Clouds Broken Clouds  
Wind Chill: 15°   Ceiling: 14000
Heat Index: 23°   Visibility: 15mi
Dew Point: 19°   Wind: 7mph
Humidity: 86%   Direction: 30°NNE
Pressure: 29.16"   Gusts: NA
Location:  51.78°N, 114.1°W
Report Text: CYQF 211200Z 03006KT 15SM SCT070 BKN140 BKN240 M05/M07 A2916 RMK AC3AC2CI2 SLP917
Loading
Personal Weather Stations






























Interactive Weather Map New forecast layout! Learn more

10-Day Weather Forecast

Advertisements
Track Severe Weather on mobile